sensor_id;sensor_type;location;lat;lon;timestamp;P1;durP1;ratioP1;P2;durP2;ratioP2
59922;SDS011;45778;51.142;3.732;2023-09-08T00:00:12;15.73;;;13.00;;
59922;SDS011;45778;51.142;3.732;2023-09-08T00:02:38;20.08;;;13.35;;
59922;SDS011;45778;51.142;3.732;2023-09-08T00:05:03;16.40;;;13.82;;
59922;SDS011;45778;51.142;3.732;2023-09-08T00:07:29;22.02;;;14.65;;
59922;SDS011;45778;51.142;3.732;2023-09-08T00:09:55;17.52;;;14.90;;
59922;SDS011;45778;51.142;3.732;2023-09-08T00:12:21;22.15;;;14.27;;
59922;SDS011;45778;51.142;3.732;2023-09-08T00:14:46;22.85;;;17.15;;
59922;SDS011;45778;51.142;3.732;2023-09-08T00:17:12;20.30;;;15.63;;
59922;SDS011;45778;51.142;3.732;2023-09-08T00:19:38;15.90;;;14.15;;
59922;SDS011;45778;51.142;3.732;2023-09-08T00:22:03;19.83;;;14.45;;
59922;SDS011;45778;51.142;3.732;2023-09-08T00:24:31;15.30;;;13.70;;
59922;SDS011;45778;51.142;3.732;2023-09-08T00:26:56;20.67;;;13.98;;
59922;SDS011;45778;51.142;3.732;2023-09-08T00:29:22;15.90;;;13.05;;
59922;SDS011;45778;51.142;3.732;2023-09-08T00:31:47;19.33;;;14.73;;
59922;SDS011;45778;51.142;3.732;2023-09-08T00:34:13;19.80;;;14.82;;
59922;SDS011;45778;51.142;3.732;2023-09-08T00:36:39;20.98;;;13.75;;
59922;SDS011;45778;51.142;3.732;2023-09-08T00:39:04;16.50;;;14.25;;
59922;SDS011;45778;51.142;3.732;2023-09-08T00:41:30;15.55;;;13.93;;
59922;SDS011;45778;51.142;3.732;2023-09-08T00:43:55;17.27;;;13.88;;
59922;SDS011;45778;51.142;3.732;2023-09-08T00:46:21;20.67;;;15.93;;
59922;SDS011;45778;51.142;3.732;2023-09-08T00:48:47;24.85;;;17.85;;
59922;SDS011;45778;51.142;3.732;2023-09-08T00:51:13;23.85;;;19.45;;
59922;SDS011;45778;51.142;3.732;2023-09-08T00:53:39;22.35;;;16.58;;
59922;SDS011;45778;51.142;3.732;2023-09-08T00:56:05;22.98;;;16.75;;
59922;SDS011;45778;51.142;3.732;2023-09-08T00:58:31;18.83;;;15.35;;
59922;SDS011;45778;51.142;3.732;2023-09-08T01:00:57;18.92;;;16.30;;
59922;SDS011;45778;51.142;3.732;2023-09-08T01:03:23;25.27;;;17.02;;
59922;SDS011;45778;51.142;3.732;2023-09-08T01:05:49;21.42;;;16.45;;
59922;SDS011;45778;51.142;3.732;2023-09-08T01:08:16;18.67;;;15.32;;
59922;SDS011;45778;51.142;3.732;2023-09-08T01:10:42;22.65;;;16.05;;
59922;SDS011;45778;51.142;3.732;2023-09-08T01:13:08;19.90;;;16.35;;
59922;SDS011;45778;51.142;3.732;2023-09-08T01:15:34;19.65;;;15.75;;
59922;SDS011;45778;51.142;3.732;2023-09-08T01:18:00;18.42;;;16.42;;
59922;SDS011;45778;51.142;3.732;2023-09-08T01:20:27;19.17;;;15.35;;
59922;SDS011;45778;51.142;3.732;2023-09-08T01:26:05;18.42;;;15.50;;
59922;SDS011;45778;51.142;3.732;2023-09-08T01:28:34;21.20;;;16.23;;
59922;SDS011;45778;51.142;3.732;2023-09-08T01:31:01;21.20;;;15.98;;
59922;SDS011;45778;51.142;3.732;2023-09-08T01:33:27;15.55;;;13.90;;
59922;SDS011;45778;51.142;3.732;2023-09-08T01:35:56;21.48;;;15.27;;
59922;SDS011;45778;51.142;3.732;2023-09-08T01:38:24;20.02;;;15.93;;
59922;SDS011;45778;51.142;3.732;2023-09-08T01:40:50;19.75;;;15.63;;
59922;SDS011;45778;51.142;3.732;2023-09-08T01:43:19;18.55;;;14.77;;
59922;SDS011;45778;51.142;3.732;2023-09-08T01:45:47;23.13;;;16.95;;
59922;SDS011;45778;51.142;3.732;2023-09-08T01:48:12;18.02;;;15.48;;
59922;SDS011;45778;51.142;3.732;2023-09-08T01:50:38;20.75;;;15.85;;
59922;SDS011;45778;51.142;3.732;2023-09-08T01:53:06;17.50;;;15.02;;
59922;SDS011;45778;51.142;3.732;2023-09-08T01:55:32;19.27;;;15.52;;
59922;SDS011;45778;51.142;3.732;2023-09-08T01:57:57;21.38;;;16.23;;
59922;SDS011;45778;51.142;3.732;2023-09-08T02:00:23;22.67;;;16.42;;
59922;SDS011;45778;51.142;3.732;2023-09-08T02:02:51;20.85;;;16.48;;
59922;SDS011;45778;51.142;3.732;2023-09-08T02:05:17;22.83;;;17.17;;
59922;SDS011;45778;51.142;3.732;2023-09-08T02:07:43;20.83;;;17.08;;
59922;SDS011;45778;51.142;3.732;2023-09-08T02:10:09;23.05;;;17.05;;
59922;SDS011;45778;51.142;3.732;2023-09-08T02:12:35;26.58;;;18.23;;
59922;SDS011;45778;51.142;3.732;2023-09-08T02:15:01;25.90;;;18.17;;
59922;SDS011;45778;51.142;3.732;2023-09-08T02:17:28;23.08;;;18.50;;
59922;SDS011;45778;51.142;3.732;2023-09-08T02:19:54;23.63;;;16.98;;
59922;SDS011;45778;51.142;3.732;2023-09-08T02:22:20;24.77;;;18.25;;
59922;SDS011;45778;51.142;3.732;2023-09-08T02:24:49;26.13;;;19.08;;
59922;SDS011;45778;51.142;3.732;2023-09-08T02:27:16;22.08;;;16.95;;
59922;SDS011;45778;51.142;3.732;2023-09-08T02:29:44;22.70;;;17.67;;
59922;SDS011;45778;51.142;3.732;2023-09-08T02:32:09;23.67;;;17.73;;
59922;SDS011;45778;51.142;3.732;2023-09-08T02:34:35;24.38;;;17.52;;
59922;SDS011;45778;51.142;3.732;2023-09-08T02:37:02;23.08;;;17.63;;
59922;SDS011;45778;51.142;3.732;2023-09-08T02:39:28;23.05;;;18.13;;
59922;SDS011;45778;51.142;3.732;2023-09-08T02:41:53;22.35;;;17.40;;
59922;SDS011;45778;51.142;3.732;2023-09-08T02:44:20;28.85;;;19.33;;
59922;SDS011;45778;51.142;3.732;2023-09-08T02:46:47;23.52;;;17.98;;
59922;SDS011;45778;51.142;3.732;2023-09-08T02:49:12;26.38;;;19.55;;
59922;SDS011;45778;51.142;3.732;2023-09-08T02:51:38;22.95;;;17.50;;
59922;SDS011;45778;51.142;3.732;2023-09-08T02:54:04;24.55;;;18.75;;
59922;SDS011;45778;51.142;3.732;2023-09-08T02:56:30;25.48;;;19.27;;
59922;SDS011;45778;51.142;3.732;2023-09-08T02:59:01;24.23;;;18.75;;
59922;SDS011;45778;51.142;3.732;2023-09-08T03:01:27;24.88;;;18.73;;
59922;SDS011;45778;51.142;3.732;2023-09-08T03:03:52;23.52;;;18.40;;
59922;SDS011;45778;51.142;3.732;2023-09-08T03:06:19;27.33;;;20.02;;
59922;SDS011;45778;51.142;3.732;2023-09-08T03:08:46;27.65;;;20.67;;
59922;SDS011;45778;51.142;3.732;2023-09-08T03:11:12;28.52;;;20.40;;
59922;SDS011;45778;51.142;3.732;2023-09-08T03:13:38;24.13;;;19.00;;
59922;SDS011;45778;51.142;3.732;2023-09-08T03:16:07;26.50;;;20.63;;
59922;SDS011;45778;51.142;3.732;2023-09-08T03:18:34;25.98;;;20.27;;
59922;SDS011;45778;51.142;3.732;2023-09-08T03:21:01;30.05;;;20.80;;
59922;SDS011;45778;51.142;3.732;2023-09-08T03:23:34;26.45;;;19.48;;
59922;SDS011;45778;51.142;3.732;2023-09-08T03:26:01;26.05;;;19.23;;
59922;SDS011;45778;51.142;3.732;2023-09-08T03:28:30;25.45;;;20.25;;
59922;SDS011;45778;51.142;3.732;2023-09-08T03:30:57;29.52;;;20.65;;
59922;SDS011;45778;51.142;3.732;2023-09-08T03:33:23;26.40;;;19.70;;
59922;SDS011;45778;51.142;3.732;2023-09-08T03:35:48;27.88;;;20.77;;
59922;SDS011;45778;51.142;3.732;2023-09-08T03:38:14;27.65;;;19.50;;
59922;SDS011;45778;51.142;3.732;2023-09-08T03:40:40;25.13;;;19.40;;
59922;SDS011;45778;51.142;3.732;2023-09-08T03:43:05;28.50;;;20.08;;
59922;SDS011;45778;51.142;3.732;2023-09-08T03:45:34;25.90;;;20.20;;
59922;SDS011;45778;51.142;3.732;2023-09-08T03:48:00;21.75;;;17.42;;
59922;SDS011;45778;51.142;3.732;2023-09-08T03:50:25;25.83;;;19.40;;
59922;SDS011;45778;51.142;3.732;2023-09-08T03:52:51;21.35;;;17.73;;
59922;SDS011;45778;51.142;3.732;2023-09-08T03:55:18;25.88;;;19.80;;
59922;SDS011;45778;51.142;3.732;2023-09-08T03:57:44;23.85;;;18.40;;
59922;SDS011;45778;51.142;3.732;2023-09-08T04:00:10;25.23;;;18.27;;
59922;SDS011;45778;51.142;3.732;2023-09-08T04:02:36;23.33;;;18.35;;
59922;SDS011;45778;51.142;3.732;2023-09-08T04:05:02;25.90;;;18.90;;
59922;SDS011;45778;51.142;3.732;2023-09-08T04:07:31;22.98;;;17.77;;
59922;SDS011;45778;51.142;3.732;2023-09-08T04:09:57;22.92;;;19.20;;
59922;SDS011;45778;51.142;3.732;2023-09-08T04:12:23;28.85;;;19.95;;
59922;SDS011;45778;51.142;3.732;2023-09-08T04:14:48;23.48;;;18.20;;
59922;SDS011;45778;51.142;3.732;2023-09-08T04:17:14;23.95;;;18.48;;
59922;SDS011;45778;51.142;3.732;2023-09-08T04:19:40;26.48;;;19.63;;
59922;SDS011;45778;51.142;3.732;2023-09-08T04:22:05;26.30;;;20.25;;
59922;SDS011;45778;51.142;3.732;2023-09-08T04:24:34;23.77;;;19.67;;
59922;SDS011;45778;51.142;3.732;2023-09-08T04:27:01;25.50;;;19.27;;
59922;SDS011;45778;51.142;3.732;2023-09-08T04:29:26;26.40;;;20.00;;
59922;SDS011;45778;51.142;3.732;2023-09-08T04:31:54;25.42;;;20.30;;
59922;SDS011;45778;51.142;3.732;2023-09-08T04:34:20;29.35;;;22.02;;
59922;SDS011;45778;51.142;3.732;2023-09-08T04:36:46;25.90;;;19.40;;
59922;SDS011;45778;51.142;3.732;2023-09-08T04:39:11;27.70;;;19.92;;
59922;SDS011;45778;51.142;3.732;2023-09-08T04:41:37;29.83;;;20.95;;
59922;SDS011;45778;51.142;3.732;2023-09-08T04:44:03;29.40;;;19.60;;
59922;SDS011;45778;51.142;3.732;2023-09-08T04:46:30;25.08;;;19.17;;
59922;SDS011;45778;51.142;3.732;2023-09-08T04:48:56;26.60;;;18.40;;
59922;SDS011;45778;51.142;3.732;2023-09-08T04:51:21;25.52;;;18.45;;
59922;SDS011;45778;51.142;3.732;2023-09-08T04:53:47;31.10;;;18.50;;
59922;SDS011;45778;51.142;3.732;2023-09-08T04:56:13;23.15;;;17.77;;
59922;SDS011;45778;51.142;3.732;2023-09-08T04:58:39;26.23;;;18.60;;
59922;SDS011;45778;51.142;3.732;2023-09-08T05:01:04;28.90;;;19.92;;
59922;SDS011;45778;51.142;3.732;2023-09-08T05:03:30;25.63;;;18.65;;
59922;SDS011;45778;51.142;3.732;2023-09-08T05:05:56;19.15;;;14.13;;
59922;SDS011;45778;51.142;3.732;2023-09-08T05:08:22;20.05;;;14.43;;
59922;SDS011;45778;51.142;3.732;2023-09-08T05:10:47;18.95;;;14.80;;
59922;SDS011;45778;51.142;3.732;2023-09-08T05:13:13;23.55;;;17.40;;
59922;SDS011;45778;51.142;3.732;2023-09-08T05:15:41;27.95;;;21.08;;
59922;SDS011;45778;51.142;3.732;2023-09-08T05:18:08;27.08;;;20.25;;
59922;SDS011;45778;51.142;3.732;2023-09-08T05:20:34;25.42;;;20.17;;
59922;SDS011;45778;51.142;3.732;2023-09-08T05:23:00;29.60;;;20.83;;
59922;SDS011;45778;51.142;3.732;2023-09-08T05:25:26;25.48;;;19.00;;
59922;SDS011;45778;51.142;3.732;2023-09-08T05:27:55;27.40;;;19.15;;
59922;SDS011;45778;51.142;3.732;2023-09-08T05:30:21;23.70;;;17.80;;
59922;SDS011;45778;51.142;3.732;2023-09-08T05:32:46;22.25;;;17.23;;
59922;SDS011;45778;51.142;3.732;2023-09-08T05:35:12;22.08;;;17.05;;
59922;SDS011;45778;51.142;3.732;2023-09-08T05:37:37;21.17;;;16.33;;
59922;SDS011;45778;51.142;3.732;2023-09-08T05:40:03;22.33;;;14.93;;
59922;SDS011;45778;51.142;3.732;2023-09-08T05:42:30;20.98;;;17.88;;
59922;SDS011;45778;51.142;3.732;2023-09-08T05:44:55;20.52;;;16.38;;
59922;SDS011;45778;51.142;3.732;2023-09-08T05:47:21;21.13;;;15.93;;
59922;SDS011;45778;51.142;3.732;2023-09-08T05:49:47;18.92;;;16.08;;
59922;SDS011;45778;51.142;3.732;2023-09-08T05:52:12;21.10;;;15.40;;
59922;SDS011;45778;51.142;3.732;2023-09-08T05:54:38;19.40;;;15.30;;
59922;SDS011;45778;51.142;3.732;2023-09-08T05:57:07;21.33;;;16.75;;
59922;SDS011;45778;51.142;3.732;2023-09-08T05:59:33;20.25;;;15.85;;
59922;SDS011;45778;51.142;3.732;2023-09-08T06:01:58;20.67;;;16.20;;
59922;SDS011;45778;51.142;3.732;2023-09-08T06:04:27;23.48;;;16.40;;
59922;SDS011;45778;51.142;3.732;2023-09-08T06:06:57;23.83;;;16.88;;
59922;SDS011;45778;51.142;3.732;2023-09-08T06:09:23;24.63;;;17.38;;
59922;SDS011;45778;51.142;3.732;2023-09-08T06:11:49;22.52;;;16.23;;
59922;SDS011;45778;51.142;3.732;2023-09-08T06:14:14;22.92;;;16.75;;
59922;SDS011;45778;51.142;3.732;2023-09-08T06:16:40;23.17;;;18.20;;
59922;SDS011;45778;51.142;3.732;2023-09-08T06:19:06;27.10;;;18.08;;
59922;SDS011;45778;51.142;3.732;2023-09-08T06:21:32;30.02;;;17.50;;
59922;SDS011;45778;51.142;3.732;2023-09-08T06:23:58;22.63;;;18.48;;
59922;SDS011;45778;51.142;3.732;2023-09-08T06:26:23;29.08;;;18.98;;
59922;SDS011;45778;51.142;3.732;2023-09-08T06:28:49;23.90;;;18.92;;
59922;SDS011;45778;51.142;3.732;2023-09-08T06:31:15;25.05;;;19.73;;
59922;SDS011;45778;51.142;3.732;2023-09-08T06:33:40;26.27;;;19.70;;
59922;SDS011;45778;51.142;3.732;2023-09-08T06:36:06;25.58;;;18.98;;
59922;SDS011;45778;51.142;3.732;2023-09-08T06:38:32;21.33;;;18.15;;
59922;SDS011;45778;51.142;3.732;2023-09-08T06:40:58;25.90;;;19.30;;
59922;SDS011;45778;51.142;3.732;2023-09-08T06:43:23;26.13;;;18.67;;
59922;SDS011;45778;51.142;3.732;2023-09-08T06:45:49;39.60;;;21.92;;
59922;SDS011;45778;51.142;3.732;2023-09-08T06:48:15;44.30;;;20.10;;
59922;SDS011;45778;51.142;3.732;2023-09-08T06:50:41;40.67;;;20.15;;
59922;SDS011;45778;51.142;3.732;2023-09-08T06:53:07;29.92;;;19.13;;
59922;SDS011;45778;51.142;3.732;2023-09-08T06:55:32;30.08;;;19.83;;
59922;SDS011;45778;51.142;3.732;2023-09-08T06:57:58;21.08;;;18.83;;
59922;SDS011;45778;51.142;3.732;2023-09-08T07:00:24;28.05;;;19.45;;
59922;SDS011;45778;51.142;3.732;2023-09-08T07:02:49;27.92;;;19.38;;
59922;SDS011;45778;51.142;3.732;2023-09-08T07:05:15;23.63;;;18.20;;
59922;SDS011;45778;51.142;3.732;2023-09-08T07:07:41;27.45;;;18.20;;
59922;SDS011;45778;51.142;3.732;2023-09-08T07:10:10;31.67;;;19.13;;
59922;SDS011;45778;51.142;3.732;2023-09-08T07:12:36;28.88;;;18.83;;
59922;SDS011;45778;51.142;3.732;2023-09-08T07:15:02;22.80;;;18.55;;
59922;SDS011;45778;51.142;3.732;2023-09-08T07:17:31;18.85;;;16.83;;
59922;SDS011;45778;51.142;3.732;2023-09-08T07:19:56;24.50;;;18.20;;
59922;SDS011;45778;51.142;3.732;2023-09-08T07:22:22;22.55;;;18.10;;
59922;SDS011;45778;51.142;3.732;2023-09-08T07:24:48;29.00;;;18.02;;
59922;SDS011;45778;51.142;3.732;2023-09-08T07:27:13;28.63;;;17.95;;
59922;SDS011;45778;51.142;3.732;2023-09-08T07:29:40;25.75;;;17.50;;
59922;SDS011;45778;51.142;3.732;2023-09-08T07:32:07;22.20;;;16.90;;
59922;SDS011;45778;51.142;3.732;2023-09-08T07:34:33;19.58;;;15.75;;
59922;SDS011;45778;51.142;3.732;2023-09-08T07:36:59;21.00;;;15.68;;
59922;SDS011;45778;51.142;3.732;2023-09-08T07:39:25;21.20;;;14.70;;
59922;SDS011;45778;51.142;3.732;2023-09-08T07:41:51;24.83;;;15.02;;
59922;SDS011;45778;51.142;3.732;2023-09-08T07:44:18;20.23;;;14.70;;
59922;SDS011;45778;51.142;3.732;2023-09-08T07:46:44;23.38;;;13.95;;
59922;SDS011;45778;51.142;3.732;2023-09-08T07:49:11;29.75;;;15.05;;
59922;SDS011;45778;51.142;3.732;2023-09-08T07:51:36;24.95;;;15.35;;
59922;SDS011;45778;51.142;3.732;2023-09-08T07:54:02;21.30;;;14.57;;
59922;SDS011;45778;51.142;3.732;2023-09-08T07:56:29;24.33;;;14.02;;
59922;SDS011;45778;51.142;3.732;2023-09-08T07:58:55;21.27;;;15.25;;
59922;SDS011;45778;51.142;3.732;2023-09-08T08:01:20;22.75;;;14.70;;
59922;SDS011;45778;51.142;3.732;2023-09-08T08:03:46;22.52;;;13.95;;
59922;SDS011;45778;51.142;3.732;2023-09-08T08:06:11;19.10;;;13.60;;
59922;SDS011;45778;51.142;3.732;2023-09-08T08:08:37;16.40;;;10.32;;
59922;SDS011;45778;51.142;3.732;2023-09-08T08:11:13;12.02;;;9.35;;
59922;SDS011;45778;51.142;3.732;2023-09-08T08:13:40;9.98;;;7.88;;
59922;SDS011;45778;51.142;3.732;2023-09-08T08:16:06;12.10;;;7.90;;
59922;SDS011;45778;51.142;3.732;2023-09-08T08:18:32;10.82;;;7.65;;
59922;SDS011;45778;51.142;3.732;2023-09-08T08:20:58;8.20;;;7.38;;
59922;SDS011;45778;51.142;3.732;2023-09-08T08:23:25;9.43;;;8.00;;
59922;SDS011;45778;51.142;3.732;2023-09-08T08:25:51;15.38;;;8.75;;
59922;SDS011;45778;51.142;3.732;2023-09-08T08:28:17;13.80;;;8.10;;
59922;SDS011;45778;51.142;3.732;2023-09-08T08:30:42;11.32;;;7.53;;
59922;SDS011;45778;51.142;3.732;2023-09-08T08:33:08;9.80;;;6.88;;
59922;SDS011;45778;51.142;3.732;2023-09-08T08:35:34;13.70;;;7.40;;
59922;SDS011;45778;51.142;3.732;2023-09-08T08:38:00;10.25;;;7.47;;
59922;SDS011;45778;51.142;3.732;2023-09-08T08:40:26;11.00;;;7.40;;
59922;SDS011;45778;51.142;3.732;2023-09-08T08:42:58;10.90;;;7.07;;
59922;SDS011;45778;51.142;3.732;2023-09-08T08:45:24;6.88;;;6.25;;
59922;SDS011;45778;51.142;3.732;2023-09-08T08:47:50;24.42;;;7.93;;
59922;SDS011;45778;51.142;3.732;2023-09-08T08:50:17;11.20;;;6.20;;
59922;SDS011;45778;51.142;3.732;2023-09-08T08:52:43;6.95;;;6.25;;
59922;SDS011;45778;51.142;3.732;2023-09-08T08:55:09;9.65;;;6.43;;
59922;SDS011;45778;51.142;3.732;2023-09-08T08:57:38;7.93;;;5.95;;
59922;SDS011;45778;51.142;3.732;2023-09-08T09:00:07;8.98;;;5.53;;
59922;SDS011;45778;51.142;3.732;2023-09-08T09:02:37;5.95;;;5.35;;
59922;SDS011;45778;51.142;3.732;2023-09-08T09:05:05;9.05;;;5.60;;
59922;SDS011;45778;51.142;3.732;2023-09-08T09:07:33;11.23;;;6.28;;
59922;SDS011;45778;51.142;3.732;2023-09-08T09:09:58;9.10;;;5.50;;
59922;SDS011;45778;51.142;3.732;2023-09-08T09:12:24;9.88;;;6.68;;
59922;SDS011;45778;51.142;3.732;2023-09-08T09:14:53;6.28;;;5.43;;
59922;SDS011;45778;51.142;3.732;2023-09-08T09:17:19;6.43;;;5.82;;
59922;SDS011;45778;51.142;3.732;2023-09-08T09:19:44;9.13;;;6.40;;
59922;SDS011;45778;51.142;3.732;2023-09-08T09:22:10;10.23;;;5.57;;
59922;SDS011;45778;51.142;3.732;2023-09-08T09:27:05;14.60;;;6.30;;
59922;SDS011;45778;51.142;3.732;2023-09-08T09:29:32;10.55;;;6.47;;
59922;SDS011;45778;51.142;3.732;2023-09-08T09:34:32;13.13;;;6.72;;
59922;SDS011;45778;51.142;3.732;2023-09-08T09:36:59;9.02;;;5.97;;
59922;SDS011;45778;51.142;3.732;2023-09-08T09:39:25;9.02;;;6.13;;
59922;SDS011;45778;51.142;3.732;2023-09-08T09:41:55;8.60;;;5.57;;
59922;SDS011;45778;51.142;3.732;2023-09-08T09:44:22;8.18;;;6.40;;
59922;SDS011;45778;51.142;3.732;2023-09-08T09:46:48;8.95;;;5.65;;
59922;SDS011;45778;51.142;3.732;2023-09-08T09:49:16;12.25;;;6.53;;
59922;SDS011;45778;51.142;3.732;2023-09-08T09:51:46;9.00;;;6.78;;
59922;SDS011;45778;51.142;3.732;2023-09-08T09:54:13;10.02;;;6.63;;
59922;SDS011;45778;51.142;3.732;2023-09-08T09:56:40;8.27;;;5.90;;
59922;SDS011;45778;51.142;3.732;2023-09-08T09:59:11;7.43;;;6.15;;
59922;SDS011;45778;51.142;3.732;2023-09-08T10:01:40;9.85;;;5.43;;
59922;SDS011;45778;51.142;3.732;2023-09-08T10:04:07;7.50;;;6.20;;
59922;SDS011;45778;51.142;3.732;2023-09-08T10:06:34;11.98;;;6.13;;
59922;SDS011;45778;51.142;3.732;2023-09-08T10:09:01;8.63;;;6.18;;
59922;SDS011;45778;51.142;3.732;2023-09-08T10:11:32;8.13;;;5.47;;
59922;SDS011;45778;51.142;3.732;2023-09-08T10:14:28;10.02;;;5.93;;
59922;SDS011;45778;51.142;3.732;2023-09-08T10:16:55;10.45;;;6.35;;
59922;SDS011;45778;51.142;3.732;2023-09-08T10:19:24;9.57;;;5.50;;
59922;SDS011;45778;51.142;3.732;2023-09-08T10:21:50;8.38;;;6.00;;
59922;SDS011;45778;51.142;3.732;2023-09-08T10:24:24;11.15;;;6.13;;
59922;SDS011;45778;51.142;3.732;2023-09-08T10:27:10;8.83;;;6.07;;
59922;SDS011;45778;51.142;3.732;2023-09-08T10:29:37;6.65;;;5.88;;
59922;SDS011;45778;51.142;3.732;2023-09-08T10:32:04;7.97;;;6.80;;
59922;SDS011;45778;51.142;3.732;2023-09-08T10:34:32;6.88;;;5.43;;
59922;SDS011;45778;51.142;3.732;2023-09-08T10:36:59;8.60;;;6.55;;
59922;SDS011;45778;51.142;3.732;2023-09-08T10:47:12;13.25;;;8.02;;
59922;SDS011;45778;51.142;3.732;2023-09-08T10:49:40;9.73;;;7.65;;
59922;SDS011;45778;51.142;3.732;2023-09-08T10:52:10;9.63;;;7.32;;
59922;SDS011;45778;51.142;3.732;2023-09-08T10:54:43;10.07;;;7.63;;
59922;SDS011;45778;51.142;3.732;2023-09-08T10:57:13;9.65;;;7.38;;
59922;SDS011;45778;51.142;3.732;2023-09-08T10:59:40;9.35;;;7.53;;
59922;SDS011;45778;51.142;3.732;2023-09-08T11:02:31;9.95;;;7.45;;
59922;SDS011;45778;51.142;3.732;2023-09-08T11:05:07;15.43;;;8.60;;
59922;SDS011;45778;51.142;3.732;2023-09-08T11:07:33;9.10;;;8.13;;
59922;SDS011;45778;51.142;3.732;2023-09-08T11:10:01;12.75;;;7.60;;
59922;SDS011;45778;51.142;3.732;2023-09-08T11:12:28;7.50;;;6.70;;
59922;SDS011;45778;51.142;3.732;2023-09-08T11:14:54;11.10;;;7.63;;
59922;SDS011;45778;51.142;3.732;2023-09-08T11:17:20;12.15;;;7.80;;
59922;SDS011;45778;51.142;3.732;2023-09-08T11:19:49;12.77;;;7.75;;
59922;SDS011;45778;51.142;3.732;2023-09-08T11:22:15;9.13;;;7.47;;
59922;SDS011;45778;51.142;3.732;2023-09-08T11:24:42;10.02;;;7.80;;
59922;SDS011;45778;51.142;3.732;2023-09-08T11:27:08;7.13;;;5.82;;
59922;SDS011;45778;51.142;3.732;2023-09-08T11:29:38;7.47;;;6.50;;
59922;SDS011;45778;51.142;3.732;2023-09-08T11:32:06;8.45;;;6.32;;
59922;SDS011;45778;51.142;3.732;2023-09-08T11:34:34;13.65;;;7.60;;
59922;SDS011;45778;51.142;3.732;2023-09-08T11:36:59;10.88;;;7.03;;
59922;SDS011;45778;51.142;3.732;2023-09-08T11:39:25;8.55;;;5.78;;
59922;SDS011;45778;51.142;3.732;2023-09-08T11:41:51;7.80;;;5.63;;
59922;SDS011;45778;51.142;3.732;2023-09-08T11:44:17;8.90;;;5.60;;
59922;SDS011;45778;51.142;3.732;2023-09-08T11:46:44;6.38;;;4.90;;
59922;SDS011;45778;51.142;3.732;2023-09-08T11:49:10;7.05;;;5.70;;
59922;SDS011;45778;51.142;3.732;2023-09-08T11:51:36;6.18;;;5.57;;
59922;SDS011;45778;51.142;3.732;2023-09-08T11:54:03;7.82;;;5.70;;
59922;SDS011;45778;51.142;3.732;2023-09-08T11:56:29;9.50;;;5.93;;
59922;SDS011;45778;51.142;3.732;2023-09-08T11:58:54;6.47;;;5.35;;
59922;SDS011;45778;51.142;3.732;2023-09-08T12:01:22;6.43;;;5.82;;
59922;SDS011;45778;51.142;3.732;2023-09-08T12:03:54;7.95;;;5.22;;
59922;SDS011;45778;51.142;3.732;2023-09-08T12:06:25;6.22;;;4.72;;
59922;SDS011;45778;51.142;3.732;2023-09-08T12:08:51;8.13;;;5.43;;
59922;SDS011;45778;51.142;3.732;2023-09-08T12:11:16;8.55;;;5.43;;
59922;SDS011;45778;51.142;3.732;2023-09-08T12:13:42;11.95;;;6.03;;
59922;SDS011;45778;51.142;3.732;2023-09-08T12:16:20;8.13;;;5.00;;
59922;SDS011;45778;51.142;3.732;2023-09-08T12:18:50;5.00;;;4.50;;
59922;SDS011;45778;51.142;3.732;2023-09-08T12:21:16;4.43;;;4.03;;
59922;SDS011;45778;51.142;3.732;2023-09-08T12:23:51;4.50;;;4.03;;
59922;SDS011;45778;51.142;3.732;2023-09-08T12:26:17;9.82;;;4.38;;
59922;SDS011;45778;51.142;3.732;2023-09-08T12:28:44;8.38;;;4.10;;
59922;SDS011;45778;51.142;3.732;2023-09-08T12:31:12;10.60;;;4.60;;
59922;SDS011;45778;51.142;3.732;2023-09-08T12:33:38;5.78;;;4.63;;
59922;SDS011;45778;51.142;3.732;2023-09-08T12:36:14;8.30;;;4.43;;
59922;SDS011;45778;51.142;3.732;2023-09-08T12:38:41;7.72;;;4.03;;
59922;SDS011;45778;51.142;3.732;2023-09-08T12:41:11;7.88;;;4.65;;
59922;SDS011;45778;51.142;3.732;2023-09-08T12:43:37;4.60;;;4.20;;
59922;SDS011;45778;51.142;3.732;2023-09-08T12:46:02;5.75;;;4.60;;
59922;SDS011;45778;51.142;3.732;2023-09-08T12:48:28;6.85;;;4.75;;
59922;SDS011;45778;51.142;3.732;2023-09-08T12:50:54;11.38;;;5.00;;
59922;SDS011;45778;51.142;3.732;2023-09-08T12:53:19;9.93;;;4.82;;
59922;SDS011;45778;51.142;3.732;2023-09-08T12:55:46;7.50;;;4.82;;
59922;SDS011;45778;51.142;3.732;2023-09-08T12:58:12;7.75;;;5.00;;
59922;SDS011;45778;51.142;3.732;2023-09-08T13:00:38;4.88;;;4.47;;
59922;SDS011;45778;51.142;3.732;2023-09-08T13:03:03;6.63;;;5.90;;
59922;SDS011;45778;51.142;3.732;2023-09-08T13:05:29;6.35;;;4.97;;
59922;SDS011;45778;51.142;3.732;2023-09-08T13:07:56;7.50;;;5.55;;
59922;SDS011;45778;51.142;3.732;2023-09-08T13:10:21;9.25;;;5.30;;
59922;SDS011;45778;51.142;3.732;2023-09-08T13:12:47;6.63;;;5.25;;
59922;SDS011;45778;51.142;3.732;2023-09-08T13:15:13;7.07;;;6.05;;
59922;SDS011;45778;51.142;3.732;2023-09-08T13:17:40;7.72;;;6.15;;
59922;SDS011;45778;51.142;3.732;2023-09-08T13:20:06;9.85;;;6.78;;
59922;SDS011;45778;51.142;3.732;2023-09-08T13:22:33;6.60;;;5.68;;
59922;SDS011;45778;51.142;3.732;2023-09-08T13:24:59;4.93;;;4.25;;
59922;SDS011;45778;51.142;3.732;2023-09-08T13:27:25;6.43;;;4.75;;
59922;SDS011;45778;51.142;3.732;2023-09-08T13:29:53;6.40;;;4.75;;
59922;SDS011;45778;51.142;3.732;2023-09-08T13:32:19;7.13;;;5.00;;
59922;SDS011;45778;51.142;3.732;2023-09-08T13:34:44;6.13;;;5.13;;
59922;SDS011;45778;51.142;3.732;2023-09-08T13:37:12;9.40;;;4.60;;
59922;SDS011;45778;51.142;3.732;2023-09-08T13:39:38;5.40;;;4.78;;
59922;SDS011;45778;51.142;3.732;2023-09-08T13:42:04;6.22;;;4.85;;
59922;SDS011;45778;51.142;3.732;2023-09-08T13:44:29;10.30;;;5.22;;
59922;SDS011;45778;51.142;3.732;2023-09-08T13:46:55;7.53;;;4.93;;
59922;SDS011;45778;51.142;3.732;2023-09-08T13:49:21;8.60;;;5.50;;
59922;SDS011;45778;51.142;3.732;2023-09-08T13:51:50;5.80;;;4.57;;
59922;SDS011;45778;51.142;3.732;2023-09-08T13:54:17;5.40;;;4.88;;
59922;SDS011;45778;51.142;3.732;2023-09-08T13:56:42;7.32;;;5.57;;
59922;SDS011;45778;51.142;3.732;2023-09-08T13:59:08;7.07;;;5.78;;
59922;SDS011;45778;51.142;3.732;2023-09-08T14:01:34;5.97;;;5.38;;
59922;SDS011;45778;51.142;3.732;2023-09-08T14:04:01;7.72;;;5.70;;
59922;SDS011;45778;51.142;3.732;2023-09-08T14:06:33;8.50;;;5.80;;
59922;SDS011;45778;51.142;3.732;2023-09-08T14:08:59;6.45;;;5.38;;
59922;SDS011;45778;51.142;3.732;2023-09-08T14:11:25;6.53;;;5.65;;
59922;SDS011;45778;51.142;3.732;2023-09-08T14:13:52;6.60;;;5.30;;
59922;SDS011;45778;51.142;3.732;2023-09-08T14:16:18;5.95;;;5.45;;
59922;SDS011;45778;51.142;3.732;2023-09-08T14:18:44;6.80;;;5.65;;
59922;SDS011;45778;51.142;3.732;2023-09-08T14:21:10;7.90;;;6.00;;
59922;SDS011;45778;51.142;3.732;2023-09-08T14:23:36;5.32;;;4.88;;
59922;SDS011;45778;51.142;3.732;2023-09-08T14:26:03;6.10;;;5.38;;
59922;SDS011;45778;51.142;3.732;2023-09-08T14:28:29;8.05;;;5.75;;
59922;SDS011;45778;51.142;3.732;2023-09-08T14:30:57;5.63;;;5.13;;
59922;SDS011;45778;51.142;3.732;2023-09-08T14:33:23;5.63;;;5.13;;
59922;SDS011;45778;51.142;3.732;2023-09-08T14:35:49;5.60;;;4.75;;
59922;SDS011;45778;51.142;3.732;2023-09-08T14:38:17;5.55;;;4.97;;
59922;SDS011;45778;51.142;3.732;2023-09-08T14:40:43;6.78;;;5.15;;
59922;SDS011;45778;51.142;3.732;2023-09-08T14:43:10;5.72;;;5.05;;